Terminal Aerodrome Forecast
Issued by NWS

Home | Current Version | Previous Version | Text Only | Print | Product List | Glossary On
Versions: 1 2 3 4 5 6 7 8 9 10 11 12 13 14 15
000
FTUS43 KLSX 092328
TAFUIN
TAF
KUIN 092328Z 1000/1024 30007KT P6SM SKC
     FM100500 24005KT P6SM FEW250
     FM101200 21010KT P6SM FEW250
     FM101500 25012G21KT P6SM FEW250
     FM101800 30013G21KT P6SM SCT250=

USA.gov is the U.S. government's official web portal to all federal, state and local government web resources and services.